sensor_id;sensor_type;location;lat;lon;timestamp;temperature;humidity
18444;DHT22;9350;53.176;8.194;2023-04-23T00:00:51;13.90;99.90
18444;DHT22;9350;53.176;8.194;2023-04-23T00:03:20;13.80;99.90
18444;DHT22;9350;53.176;8.194;2023-04-23T00:05:51;13.80;99.90
18444;DHT22;9350;53.176;8.194;2023-04-23T00:08:19;13.80;99.90
18444;DHT22;9350;53.176;8.194;2023-04-23T00:10:48;13.80;99.90
18444;DHT22;9350;53.176;8.194;2023-04-23T00:13:15;13.70;99.90
18444;DHT22;9350;53.176;8.194;2023-04-23T00:15:42;13.70;99.90
18444;DHT22;9350;53.176;8.194;2023-04-23T00:18:09;13.70;99.90
18444;DHT22;9350;53.176;8.194;2023-04-23T00:20:36;13.60;99.90
18444;DHT22;9350;53.176;8.194;2023-04-23T00:23:02;13.50;99.90
18444;DHT22;9350;53.176;8.194;2023-04-23T00:25:29;13.50;99.90
18444;DHT22;9350;53.176;8.194;2023-04-23T00:27:57;13.40;99.90
18444;DHT22;9350;53.176;8.194;2023-04-23T00:30:24;13.30;99.90
18444;DHT22;9350;53.176;8.194;2023-04-23T00:32:51;13.30;99.90
18444;DHT22;9350;53.176;8.194;2023-04-23T00:35:17;13.30;99.90
18444;DHT22;9350;53.176;8.194;2023-04-23T00:37:45;13.30;99.90
18444;DHT22;9350;53.176;8.194;2023-04-23T00:40:12;13.30;99.90
18444;DHT22;9350;53.176;8.194;2023-04-23T00:42:39;13.30;99.90
18444;DHT22;9350;53.176;8.194;2023-04-23T00:45:08;13.30;99.90
18444;DHT22;9350;53.176;8.194;2023-04-23T00:47:35;13.20;99.90
18444;DHT22;9350;53.176;8.194;2023-04-23T00:50:02;13.30;99.90
18444;DHT22;9350;53.176;8.194;2023-04-23T00:52:30;13.10;99.90
18444;DHT22;9350;53.176;8.194;2023-04-23T00:54:56;13.00;99.90
18444;DHT22;9350;53.176;8.194;2023-04-23T00:57:23;13.00;99.90
18444;DHT22;9350;53.176;8.194;2023-04-23T00:59:51;12.80;99.90
18444;DHT22;9350;53.176;8.194;2023-04-23T01:02:20;12.80;99.90
18444;DHT22;9350;53.176;8.194;2023-04-23T01:04:48;12.80;99.90
18444;DHT22;9350;53.176;8.194;2023-04-23T01:07:16;12.80;99.90
18444;DHT22;9350;53.176;8.194;2023-04-23T01:09:42;12.70;99.90
18444;DHT22;9350;53.176;8.194;2023-04-23T01:12:09;12.80;99.90
18444;DHT22;9350;53.176;8.194;2023-04-23T01:14:37;12.80;99.90
18444;DHT22;9350;53.176;8.194;2023-04-23T01:17:04;12.80;99.90
18444;DHT22;9350;53.176;8.194;2023-04-23T01:19:34;12.80;99.90
18444;DHT22;9350;53.176;8.194;2023-04-23T01:22:01;12.80;99.90
18444;DHT22;9350;53.176;8.194;2023-04-23T01:24:30;12.80;99.90
18444;DHT22;9350;53.176;8.194;2023-04-23T01:26:56;12.60;99.90
18444;DHT22;9350;53.176;8.194;2023-04-23T01:29:24;12.70;99.90
18444;DHT22;9350;53.176;8.194;2023-04-23T01:31:52;12.80;99.90
18444;DHT22;9350;53.176;8.194;2023-04-23T01:34:20;12.70;99.90
18444;DHT22;9350;53.176;8.194;2023-04-23T01:36:48;12.70;99.90
18444;DHT22;9350;53.176;8.194;2023-04-23T01:39:15;12.70;99.90
18444;DHT22;9350;53.176;8.194;2023-04-23T01:41:44;12.60;99.90
18444;DHT22;9350;53.176;8.194;2023-04-23T01:44:11;12.60;99.90
18444;DHT22;9350;53.176;8.194;2023-04-23T01:46:38;12.60;99.90
18444;DHT22;9350;53.176;8.194;2023-04-23T01:49:05;12.60;99.90
18444;DHT22;9350;53.176;8.194;2023-04-23T01:51:31;12.70;99.90
18444;DHT22;9350;53.176;8.194;2023-04-23T01:53:58;12.60;99.90
18444;DHT22;9350;53.176;8.194;2023-04-23T01:56:27;12.50;99.90
18444;DHT22;9350;53.176;8.194;2023-04-23T01:58:56;12.50;99.90
18444;DHT22;9350;53.176;8.194;2023-04-23T02:01:23;12.40;99.90
18444;DHT22;9350;53.176;8.194;2023-04-23T02:03:49;12.50;99.90
18444;DHT22;9350;53.176;8.194;2023-04-23T02:06:16;12.40;99.90
18444;DHT22;9350;53.176;8.194;2023-04-23T02:08:43;12.40;99.90
18444;DHT22;9350;53.176;8.194;2023-04-23T02:11:10;12.40;99.90
18444;DHT22;9350;53.176;8.194;2023-04-23T02:13:36;12.40;99.90
18444;DHT22;9350;53.176;8.194;2023-04-23T02:16:05;12.40;99.90
18444;DHT22;9350;53.176;8.194;2023-04-23T02:18:32;12.40;99.90
18444;DHT22;9350;53.176;8.194;2023-04-23T02:20:59;12.40;99.90
18444;DHT22;9350;53.176;8.194;2023-04-23T02:23:26;12.30;99.90
18444;DHT22;9350;53.176;8.194;2023-04-23T02:25:53;12.30;99.90
18444;DHT22;9350;53.176;8.194;2023-04-23T02:28:19;12.30;99.90
18444;DHT22;9350;53.176;8.194;2023-04-23T02:30:46;12.20;99.90
18444;DHT22;9350;53.176;8.194;2023-04-23T02:33:15;12.20;99.90
18444;DHT22;9350;53.176;8.194;2023-04-23T02:35:41;12.30;99.90
18444;DHT22;9350;53.176;8.194;2023-04-23T02:38:08;12.30;99.90
18444;DHT22;9350;53.176;8.194;2023-04-23T02:40:35;12.20;99.90
18444;DHT22;9350;53.176;8.194;2023-04-23T02:43:01;12.20;99.90
18444;DHT22;9350;53.176;8.194;2023-04-23T02:45:28;12.20;99.90
18444;DHT22;9350;53.176;8.194;2023-04-23T02:47:55;12.10;99.90
18444;DHT22;9350;53.176;8.194;2023-04-23T02:50:23;12.10;99.90
18444;DHT22;9350;53.176;8.194;2023-04-23T02:52:50;12.10;99.90
18444;DHT22;9350;53.176;8.194;2023-04-23T02:55:17;12.00;99.90
18444;DHT22;9350;53.176;8.194;2023-04-23T02:57:43;12.10;99.90
18444;DHT22;9350;53.176;8.194;2023-04-23T03:00:11;12.10;99.90
18444;DHT22;9350;53.176;8.194;2023-04-23T03:02:39;12.00;99.90
18444;DHT22;9350;53.176;8.194;2023-04-23T03:05:06;12.00;99.90
18444;DHT22;9350;53.176;8.194;2023-04-23T03:07:35;12.00;99.90
18444;DHT22;9350;53.176;8.194;2023-04-23T03:10:02;11.90;99.90
18444;DHT22;9350;53.176;8.194;2023-04-23T03:12:30;12.00;99.90
18444;DHT22;9350;53.176;8.194;2023-04-23T03:14:56;11.90;99.90
18444;DHT22;9350;53.176;8.194;2023-04-23T03:17:23;11.90;99.90
18444;DHT22;9350;53.176;8.194;2023-04-23T03:19:50;11.80;99.90
18444;DHT22;9350;53.176;8.194;2023-04-23T03:22:17;11.80;99.90
18444;DHT22;9350;53.176;8.194;2023-04-23T03:24:45;11.80;99.90
18444;DHT22;9350;53.176;8.194;2023-04-23T03:27:11;11.80;99.90
18444;DHT22;9350;53.176;8.194;2023-04-23T03:29:38;11.80;99.90
18444;DHT22;9350;53.176;8.194;2023-04-23T03:32:05;11.90;99.90
18444;DHT22;9350;53.176;8.194;2023-04-23T03:34:32;11.90;99.90
18444;DHT22;9350;53.176;8.194;2023-04-23T03:36:59;11.90;99.90
18444;DHT22;9350;53.176;8.194;2023-04-23T03:39:25;11.90;99.90
18444;DHT22;9350;53.176;8.194;2023-04-23T03:41:53;11.90;99.90
18444;DHT22;9350;53.176;8.194;2023-04-23T03:44:20;11.80;99.90
18444;DHT22;9350;53.176;8.194;2023-04-23T03:46:47;11.80;99.90
18444;DHT22;9350;53.176;8.194;2023-04-23T03:49:13;11.80;99.90
18444;DHT22;9350;53.176;8.194;2023-04-23T03:51:41;11.90;99.90
18444;DHT22;9350;53.176;8.194;2023-04-23T03:54:07;11.70;99.90
18444;DHT22;9350;53.176;8.194;2023-04-23T03:56:35;11.70;99.90
18444;DHT22;9350;53.176;8.194;2023-04-23T03:59:03;11.60;99.90
18444;DHT22;9350;53.176;8.194;2023-04-23T04:01:29;11.60;99.90
18444;DHT22;9350;53.176;8.194;2023-04-23T04:03:57;11.60;99.90
18444;DHT22;9350;53.176;8.194;2023-04-23T04:06:24;11.60;99.90
18444;DHT22;9350;53.176;8.194;2023-04-23T04:08:50;11.50;99.90
18444;DHT22;9350;53.176;8.194;2023-04-23T04:11:17;11.60;99.90
18444;DHT22;9350;53.176;8.194;2023-04-23T04:13:44;11.60;99.90
18444;DHT22;9350;53.176;8.194;2023-04-23T04:16:12;11.60;99.90
18444;DHT22;9350;53.176;8.194;2023-04-23T04:18:38;11.50;99.90
18444;DHT22;9350;53.176;8.194;2023-04-23T04:21:05;11.40;99.90
18444;DHT22;9350;53.176;8.194;2023-04-23T04:23:32;11.50;99.90
18444;DHT22;9350;53.176;8.194;2023-04-23T04:25:59;11.50;99.90
18444;DHT22;9350;53.176;8.194;2023-04-23T04:28:26;11.50;99.90
18444;DHT22;9350;53.176;8.194;2023-04-23T04:30:53;11.40;99.90
18444;DHT22;9350;53.176;8.194;2023-04-23T04:33:23;11.40;99.90
18444;DHT22;9350;53.176;8.194;2023-04-23T04:35:50;11.50;99.90
18444;DHT22;9350;53.176;8.194;2023-04-23T04:38:17;11.40;99.90
18444;DHT22;9350;53.176;8.194;2023-04-23T04:40:44;11.40;99.90
18444;DHT22;9350;53.176;8.194;2023-04-23T04:43:11;11.40;99.90
18444;DHT22;9350;53.176;8.194;2023-04-23T04:45:37;11.40;99.90
18444;DHT22;9350;53.176;8.194;2023-04-23T04:48:04;11.50;99.90
18444;DHT22;9350;53.176;8.194;2023-04-23T04:50:32;11.40;99.90
18444;DHT22;9350;53.176;8.194;2023-04-23T04:52:59;11.40;99.90
18444;DHT22;9350;53.176;8.194;2023-04-23T04:55:26;11.30;99.90
18444;DHT22;9350;53.176;8.194;2023-04-23T04:57:52;11.30;99.90
18444;DHT22;9350;53.176;8.194;2023-04-23T05:00:22;11.40;99.90
18444;DHT22;9350;53.176;8.194;2023-04-23T05:02:51;11.40;99.90
18444;DHT22;9350;53.176;8.194;2023-04-23T05:05:18;11.40;99.90
18444;DHT22;9350;53.176;8.194;2023-04-23T05:07:47;11.40;99.90
18444;DHT22;9350;53.176;8.194;2023-04-23T05:10:14;11.30;99.90
18444;DHT22;9350;53.176;8.194;2023-04-23T05:12:41;11.30;99.90
18444;DHT22;9350;53.176;8.194;2023-04-23T05:15:09;11.40;99.90
18444;DHT22;9350;53.176;8.194;2023-04-23T05:17:37;11.40;99.90
18444;DHT22;9350;53.176;8.194;2023-04-23T05:20:05;11.40;99.90
18444;DHT22;9350;53.176;8.194;2023-04-23T05:22:35;11.50;99.90
18444;DHT22;9350;53.176;8.194;2023-04-23T05:25:04;11.40;99.90
18444;DHT22;9350;53.176;8.194;2023-04-23T05:27:31;11.50;99.90
18444;DHT22;9350;53.176;8.194;2023-04-23T05:29:59;11.50;99.90
18444;DHT22;9350;53.176;8.194;2023-04-23T05:32:25;11.40;99.90
18444;DHT22;9350;53.176;8.194;2023-04-23T05:34:52;11.40;99.90
18444;DHT22;9350;53.176;8.194;2023-04-23T05:37:19;11.50;99.90
18444;DHT22;9350;53.176;8.194;2023-04-23T05:39:46;11.50;99.90
18444;DHT22;9350;53.176;8.194;2023-04-23T05:42:14;11.60;99.90
18444;DHT22;9350;53.176;8.194;2023-04-23T05:44:41;11.60;99.90
18444;DHT22;9350;53.176;8.194;2023-04-23T05:47:08;11.60;99.90
18444;DHT22;9350;53.176;8.194;2023-04-23T05:49:35;11.60;99.90
18444;DHT22;9350;53.176;8.194;2023-04-23T05:52:02;11.60;99.90
18444;DHT22;9350;53.176;8.194;2023-04-23T05:54:29;11.60;99.90
18444;DHT22;9350;53.176;8.194;2023-04-23T05:56:56;11.60;99.90
18444;DHT22;9350;53.176;8.194;2023-04-23T05:59:24;11.70;99.90
18444;DHT22;9350;53.176;8.194;2023-04-23T06:01:51;11.60;99.90
18444;DHT22;9350;53.176;8.194;2023-04-23T06:04:18;11.60;99.90
18444;DHT22;9350;53.176;8.194;2023-04-23T06:06:45;11.60;99.90
18444;DHT22;9350;53.176;8.194;2023-04-23T06:09:11;11.70;99.90
18444;DHT22;9350;53.176;8.194;2023-04-23T06:11:38;11.70;99.90
18444;DHT22;9350;53.176;8.194;2023-04-23T06:14:05;11.80;99.90
18444;DHT22;9350;53.176;8.194;2023-04-23T06:16:33;11.90;99.90
18444;DHT22;9350;53.176;8.194;2023-04-23T06:18:59;11.90;99.90
18444;DHT22;9350;53.176;8.194;2023-04-23T06:21:26;12.00;99.90
18444;DHT22;9350;53.176;8.194;2023-04-23T06:23:53;12.00;99.90
18444;DHT22;9350;53.176;8.194;2023-04-23T06:26:20;12.00;99.90
18444;DHT22;9350;53.176;8.194;2023-04-23T06:28:46;11.90;99.90
18444;DHT22;9350;53.176;8.194;2023-04-23T06:31:13;12.00;99.90
18444;DHT22;9350;53.176;8.194;2023-04-23T06:33:41;11.90;99.90
18444;DHT22;9350;53.176;8.194;2023-04-23T06:36:08;12.00;99.90
18444;DHT22;9350;53.176;8.194;2023-04-23T06:38:35;12.10;99.90
18444;DHT22;9350;53.176;8.194;2023-04-23T06:41:02;12.10;99.90
18444;DHT22;9350;53.176;8.194;2023-04-23T06:43:29;12.10;99.90
18444;DHT22;9350;53.176;8.194;2023-04-23T06:45:57;12.20;99.90
18444;DHT22;9350;53.176;8.194;2023-04-23T06:48:23;12.20;99.90
18444;DHT22;9350;53.176;8.194;2023-04-23T06:50:52;12.30;99.90
18444;DHT22;9350;53.176;8.194;2023-04-23T06:53:19;12.40;99.90
18444;DHT22;9350;53.176;8.194;2023-04-23T06:55:45;12.50;99.90
18444;DHT22;9350;53.176;8.194;2023-04-23T06:58:14;12.50;99.90
18444;DHT22;9350;53.176;8.194;2023-04-23T07:00:41;12.60;99.90
18444;DHT22;9350;53.176;8.194;2023-04-23T07:03:07;12.60;99.90
18444;DHT22;9350;53.176;8.194;2023-04-23T07:05:34;12.60;99.90
18444;DHT22;9350;53.176;8.194;2023-04-23T07:08:02;12.60;99.90
18444;DHT22;9350;53.176;8.194;2023-04-23T07:10:29;12.60;99.90
18444;DHT22;9350;53.176;8.194;2023-04-23T07:12:56;12.70;99.90
18444;DHT22;9350;53.176;8.194;2023-04-23T07:15:23;12.70;99.90
18444;DHT22;9350;53.176;8.194;2023-04-23T07:17:50;12.80;99.90
18444;DHT22;9350;53.176;8.194;2023-04-23T07:20:16;12.80;99.90
18444;DHT22;9350;53.176;8.194;2023-04-23T07:22:45;12.80;99.90
18444;DHT22;9350;53.176;8.194;2023-04-23T07:25:14;12.80;99.90
18444;DHT22;9350;53.176;8.194;2023-04-23T07:27:41;12.90;99.90
18444;DHT22;9350;53.176;8.194;2023-04-23T07:30:08;12.90;99.90
18444;DHT22;9350;53.176;8.194;2023-04-23T07:32:35;13.10;99.90
18444;DHT22;9350;53.176;8.194;2023-04-23T07:35:02;13.10;99.90
18444;DHT22;9350;53.176;8.194;2023-04-23T07:37:29;13.10;99.90
18444;DHT22;9350;53.176;8.194;2023-04-23T07:39:56;13.10;99.90
18444;DHT22;9350;53.176;8.194;2023-04-23T07:42:24;13.20;99.90
18444;DHT22;9350;53.176;8.194;2023-04-23T07:44:51;13.20;99.90
18444;DHT22;9350;53.176;8.194;2023-04-23T07:47:17;13.10;99.90
18444;DHT22;9350;53.176;8.194;2023-04-23T07:49:44;13.10;99.90
18444;DHT22;9350;53.176;8.194;2023-04-23T07:52:11;13.10;99.90
18444;DHT22;9350;53.176;8.194;2023-04-23T07:54:37;13.10;99.90
18444;DHT22;9350;53.176;8.194;2023-04-23T07:57:04;13.10;99.90
18444;DHT22;9350;53.176;8.194;2023-04-23T07:59:33;13.30;99.90
18444;DHT22;9350;53.176;8.194;2023-04-23T08:02:00;13.30;99.90
18444;DHT22;9350;53.176;8.194;2023-04-23T08:04:27;13.30;99.90
18444;DHT22;9350;53.176;8.194;2023-04-23T08:06:53;13.30;99.90
18444;DHT22;9350;53.176;8.194;2023-04-23T08:09:20;13.40;99.90
18444;DHT22;9350;53.176;8.194;2023-04-23T08:11:47;13.50;99.90
18444;DHT22;9350;53.176;8.194;2023-04-23T08:14:13;13.40;99.90
18444;DHT22;9350;53.176;8.194;2023-04-23T08:16:42;13.50;99.90
18444;DHT22;9350;53.176;8.194;2023-04-23T08:19:08;13.60;99.90
18444;DHT22;9350;53.176;8.194;2023-04-23T08:21:36;13.60;99.90
18444;DHT22;9350;53.176;8.194;2023-04-23T08:24:03;13.60;99.90
18444;DHT22;9350;53.176;8.194;2023-04-23T08:26:31;13.60;99.90
18444;DHT22;9350;53.176;8.194;2023-04-23T08:28:57;13.60;99.90
18444;DHT22;9350;53.176;8.194;2023-04-23T08:31:25;13.70;99.90
18444;DHT22;9350;53.176;8.194;2023-04-23T08:33:53;13.70;99.90
18444;DHT22;9350;53.176;8.194;2023-04-23T08:36:20;13.80;99.90
18444;DHT22;9350;53.176;8.194;2023-04-23T08:38:46;13.90;99.90
18444;DHT22;9350;53.176;8.194;2023-04-23T08:41:14;13.90;99.90
18444;DHT22;9350;53.176;8.194;2023-04-23T08:43:46;14.00;99.90
18444;DHT22;9350;53.176;8.194;2023-04-23T08:46:17;14.10;99.90
18444;DHT22;9350;53.176;8.194;2023-04-23T08:48:44;14.20;99.90
18444;DHT22;9350;53.176;8.194;2023-04-23T08:51:18;14.30;99.90
18444;DHT22;9350;53.176;8.194;2023-04-23T08:53:50;14.30;99.90
18444;DHT22;9350;53.176;8.194;2023-04-23T08:56:18;14.40;99.90
18444;DHT22;9350;53.176;8.194;2023-04-23T08:58:46;14.50;99.90
18444;DHT22;9350;53.176;8.194;2023-04-23T09:01:14;14.50;99.90
18444;DHT22;9350;53.176;8.194;2023-04-23T09:03:41;14.70;99.90
18444;DHT22;9350;53.176;8.194;2023-04-23T09:06:08;14.70;99.90
18444;DHT22;9350;53.176;8.194;2023-04-23T09:08:37;14.70;99.90
18444;DHT22;9350;53.176;8.194;2023-04-23T09:11:04;14.80;99.90
18444;DHT22;9350;53.176;8.194;2023-04-23T09:13:32;15.00;99.90
18444;DHT22;9350;53.176;8.194;2023-04-23T09:16:00;15.00;99.90
18444;DHT22;9350;53.176;8.194;2023-04-23T09:18:27;15.10;99.90
18444;DHT22;9350;53.176;8.194;2023-04-23T09:20:53;15.10;99.90
18444;DHT22;9350;53.176;8.194;2023-04-23T09:23:21;15.20;99.90
18444;DHT22;9350;53.176;8.194;2023-04-23T09:25:50;15.30;99.90
18444;DHT22;9350;53.176;8.194;2023-04-23T09:28:17;15.30;99.90
18444;DHT22;9350;53.176;8.194;2023-04-23T09:30:44;15.30;99.90
18444;DHT22;9350;53.176;8.194;2023-04-23T09:33:11;15.30;99.90
18444;DHT22;9350;53.176;8.194;2023-04-23T09:35:38;15.30;99.90
18444;DHT22;9350;53.176;8.194;2023-04-23T09:38:06;15.40;99.90
18444;DHT22;9350;53.176;8.194;2023-04-23T09:40:35;15.40;99.90
18444;DHT22;9350;53.176;8.194;2023-04-23T09:43:04;15.50;99.90
18444;DHT22;9350;53.176;8.194;2023-04-23T09:45:31;15.60;99.90
18444;DHT22;9350;53.176;8.194;2023-04-23T09:47:59;15.60;99.90
18444;DHT22;9350;53.176;8.194;2023-04-23T09:50:33;15.70;99.90
18444;DHT22;9350;53.176;8.194;2023-04-23T09:53:01;15.90;99.90
18444;DHT22;9350;53.176;8.194;2023-04-23T09:55:29;16.10;99.90
18444;DHT22;9350;53.176;8.194;2023-04-23T09:58:00;16.20;99.90
18444;DHT22;9350;53.176;8.194;2023-04-23T10:00:32;16.20;99.90
18444;DHT22;9350;53.176;8.194;2023-04-23T10:02:59;16.10;99.90
18444;DHT22;9350;53.176;8.194;2023-04-23T10:05:26;16.20;99.90
18444;DHT22;9350;53.176;8.194;2023-04-23T10:07:54;16.20;99.90
18444;DHT22;9350;53.176;8.194;2023-04-23T10:10:21;16.10;99.90
18444;DHT22;9350;53.176;8.194;2023-04-23T10:12:50;16.10;99.90
18444;DHT22;9350;53.176;8.194;2023-04-23T10:15:18;16.10;99.90
18444;DHT22;9350;53.176;8.194;2023-04-23T10:17:46;16.10;99.90
18444;DHT22;9350;53.176;8.194;2023-04-23T10:20:13;16.10;99.90
18444;DHT22;9350;53.176;8.194;2023-04-23T10:22:43;16.20;99.90
18444;DHT22;9350;53.176;8.194;2023-04-23T10:25:11;16.10;99.90
18444;DHT22;9350;53.176;8.194;2023-04-23T10:27:39;16.20;99.90
18444;DHT22;9350;53.176;8.194;2023-04-23T10:30:08;16.40;99.90
18444;DHT22;9350;53.176;8.194;2023-04-23T10:32:36;16.40;99.90
18444;DHT22;9350;53.176;8.194;2023-04-23T10:35:06;16.50;99.90
18444;DHT22;9350;53.176;8.194;2023-04-23T10:37:33;16.60;99.90
18444;DHT22;9350;53.176;8.194;2023-04-23T10:40:04;16.60;99.90
18444;DHT22;9350;53.176;8.194;2023-04-23T10:42:34;16.70;99.90
18444;DHT22;9350;53.176;8.194;2023-04-23T10:45:00;16.70;99.90
18444;DHT22;9350;53.176;8.194;2023-04-23T10:47:27;16.70;99.90
18444;DHT22;9350;53.176;8.194;2023-04-23T10:49:54;16.70;99.90
18444;DHT22;9350;53.176;8.194;2023-04-23T10:52:22;16.80;99.90
18444;DHT22;9350;53.176;8.194;2023-04-23T10:54:56;16.90;99.90
18444;DHT22;9350;53.176;8.194;2023-04-23T10:57:24;17.00;99.90
18444;DHT22;9350;53.176;8.194;2023-04-23T10:59:51;17.00;99.90
18444;DHT22;9350;53.176;8.194;2023-04-23T11:02:19;17.00;99.90
18444;DHT22;9350;53.176;8.194;2023-04-23T11:04:54;17.10;99.90
18444;DHT22;9350;53.176;8.194;2023-04-23T11:07:25;17.20;99.90
18444;DHT22;9350;53.176;8.194;2023-04-23T11:09:51;17.30;99.90
18444;DHT22;9350;53.176;8.194;2023-04-23T11:12:31;17.30;99.90
18444;DHT22;9350;53.176;8.194;2023-04-23T11:14:58;17.40;99.90
18444;DHT22;9350;53.176;8.194;2023-04-23T11:20:30;17.40;99.90
18444;DHT22;9350;53.176;8.194;2023-04-23T11:22:59;17.30;99.90
18444;DHT22;9350;53.176;8.194;2023-04-23T11:25:26;17.30;99.90
18444;DHT22;9350;53.176;8.194;2023-04-23T11:27:55;17.30;99.90
18444;DHT22;9350;53.176;8.194;2023-04-23T11:30:24;17.30;99.90
18444;DHT22;9350;53.176;8.194;2023-04-23T11:32:53;17.50;99.90
18444;DHT22;9350;53.176;8.194;2023-04-23T11:35:22;17.60;99.90
18444;DHT22;9350;53.176;8.194;2023-04-23T11:37:48;17.60;99.90
18444;DHT22;9350;53.176;8.194;2023-04-23T11:40:18;17.60;99.90
18444;DHT22;9350;53.176;8.194;2023-04-23T11:42:46;17.70;99.90
18444;DHT22;9350;53.176;8.194;2023-04-23T11:45:17;17.60;99.90
18444;DHT22;9350;53.176;8.194;2023-04-23T11:47:45;17.50;99.90
18444;DHT22;9350;53.176;8.194;2023-04-23T11:50:16;17.50;99.90
18444;DHT22;9350;53.176;8.194;2023-04-23T11:52:43;17.50;99.90
18444;DHT22;9350;53.176;8.194;2023-04-23T11:55:10;17.60;99.90
18444;DHT22;9350;53.176;8.194;2023-04-23T11:57:42;17.70;99.90
18444;DHT22;9350;53.176;8.194;2023-04-23T12:00:14;17.80;99.90
18444;DHT22;9350;53.176;8.194;2023-04-23T12:02:52;17.90;99.90
18444;DHT22;9350;53.176;8.194;2023-04-23T12:05:20;17.90;99.90
18444;DHT22;9350;53.176;8.194;2023-04-23T12:07:48;18.00;99.90
18444;DHT22;9350;53.176;8.194;2023-04-23T12:10:17;18.00;99.90
18444;DHT22;9350;53.176;8.194;2023-04-23T12:12:49;18.00;99.90
18444;DHT22;9350;53.176;8.194;2023-04-23T12:15:17;18.00;99.90
18444;DHT22;9350;53.176;8.194;2023-04-23T12:17:47;18.00;99.90
18444;DHT22;9350;53.176;8.194;2023-04-23T12:20:17;18.00;99.90
18444;DHT22;9350;53.176;8.194;2023-04-23T12:22:44;18.00;99.90
18444;DHT22;9350;53.176;8.194;2023-04-23T12:25:11;18.10;99.90
18444;DHT22;9350;53.176;8.194;2023-04-23T12:27:38;18.20;99.90
18444;DHT22;9350;53.176;8.194;2023-04-23T12:30:09;18.30;99.90
18444;DHT22;9350;53.176;8.194;2023-04-23T12:32:36;18.30;99.90
18444;DHT22;9350;53.176;8.194;2023-04-23T12:35:04;18.40;99.90
18444;DHT22;9350;53.176;8.194;2023-04-23T12:37:35;18.40;99.90
18444;DHT22;9350;53.176;8.194;2023-04-23T12:40:03;18.50;99.90
18444;DHT22;9350;53.176;8.194;2023-04-23T12:42:32;18.40;99.90
18444;DHT22;9350;53.176;8.194;2023-04-23T12:45:05;18.40;99.90
18444;DHT22;9350;53.176;8.194;2023-04-23T12:47:33;18.40;99.90
18444;DHT22;9350;53.176;8.194;2023-04-23T12:50:00;18.30;99.90
18444;DHT22;9350;53.176;8.194;2023-04-23T12:52:28;18.30;99.90
18444;DHT22;9350;53.176;8.194;2023-04-23T12:54:55;18.40;99.90
18444;DHT22;9350;53.176;8.194;2023-04-23T12:57:23;18.50;99.90
18444;DHT22;9350;53.176;8.194;2023-04-23T12:59:51;18.60;99.90
18444;DHT22;9350;53.176;8.194;2023-04-23T13:02:19;18.70;99.90
18444;DHT22;9350;53.176;8.194;2023-04-23T13:04:47;18.70;99.90
18444;DHT22;9350;53.176;8.194;2023-04-23T13:07:14;18.80;99.90
18444;DHT22;9350;53.176;8.194;2023-04-23T13:09:40;18.90;99.90
18444;DHT22;9350;53.176;8.194;2023-04-23T13:12:07;18.80;99.90
18444;DHT22;9350;53.176;8.194;2023-04-23T13:14:34;18.90;99.90
18444;DHT22;9350;53.176;8.194;2023-04-23T13:17:01;18.90;99.90
18444;DHT22;9350;53.176;8.194;2023-04-23T13:19:27;18.90;99.90
18444;DHT22;9350;53.176;8.194;2023-04-23T13:21:55;18.90;99.90
18444;DHT22;9350;53.176;8.194;2023-04-23T13:24:22;18.80;99.90
18444;DHT22;9350;53.176;8.194;2023-04-23T13:26:49;18.70;99.90
18444;DHT22;9350;53.176;8.194;2023-04-23T13:29:15;18.60;99.90
18444;DHT22;9350;53.176;8.194;2023-04-23T13:31:42;18.50;99.90
18444;DHT22;9350;53.176;8.194;2023-04-23T13:34:09;18.50;99.90
18444;DHT22;9350;53.176;8.194;2023-04-23T13:36:36;18.30;99.90
18444;DHT22;9350;53.176;8.194;2023-04-23T13:39:07;18.30;99.90
18444;DHT22;9350;53.176;8.194;2023-04-23T13:41:34;18.40;99.90
18444;DHT22;9350;53.176;8.194;2023-04-23T13:44:00;18.40;99.90
18444;DHT22;9350;53.176;8.194;2023-04-23T13:46:28;18.40;99.90
18444;DHT22;9350;53.176;8.194;2023-04-23T13:48:55;18.40;99.90
18444;DHT22;9350;53.176;8.194;2023-04-23T13:51:22;18.40;99.90
18444;DHT22;9350;53.176;8.194;2023-04-23T13:53:48;18.50;99.90
18444;DHT22;9350;53.176;8.194;2023-04-23T13:56:17;18.60;99.90
18444;DHT22;9350;53.176;8.194;2023-04-23T13:58:43;18.70;99.90
18444;DHT22;9350;53.176;8.194;2023-04-23T14:01:12;18.50;99.90
18444;DHT22;9350;53.176;8.194;2023-04-23T14:03:40;18.40;99.90
18444;DHT22;9350;53.176;8.194;2023-04-23T14:06:06;18.30;99.90
18444;DHT22;9350;53.176;8.194;2023-04-23T14:08:33;18.20;99.90
18444;DHT22;9350;53.176;8.194;2023-04-23T14:11:01;18.20;99.90
18444;DHT22;9350;53.176;8.194;2023-04-23T14:13:29;18.20;99.90
18444;DHT22;9350;53.176;8.194;2023-04-23T14:15:56;18.20;99.90
18444;DHT22;9350;53.176;8.194;2023-04-23T14:18:23;18.30;99.90
18444;DHT22;9350;53.176;8.194;2023-04-23T14:20:50;18.20;99.90
18444;DHT22;9350;53.176;8.194;2023-04-23T14:23:42;18.20;99.90
18444;DHT22;9350;53.176;8.194;2023-04-23T14:26:21;18.20;99.90
18444;DHT22;9350;53.176;8.194;2023-04-23T14:28:50;18.20;99.90
18444;DHT22;9350;53.176;8.194;2023-04-23T14:31:17;18.20;99.90
18444;DHT22;9350;53.176;8.194;2023-04-23T14:33:44;18.30;99.90
18444;DHT22;9350;53.176;8.194;2023-04-23T14:36:11;18.30;99.90
18444;DHT22;9350;53.176;8.194;2023-04-23T14:38:37;18.20;99.90
18444;DHT22;9350;53.176;8.194;2023-04-23T14:41:04;18.20;99.90
18444;DHT22;9350;53.176;8.194;2023-04-23T14:43:31;18.20;99.90
18444;DHT22;9350;53.176;8.194;2023-04-23T14:45:59;18.20;99.90
18444;DHT22;9350;53.176;8.194;2023-04-23T14:48:26;18.20;99.90
18444;DHT22;9350;53.176;8.194;2023-04-23T14:50:53;18.20;99.90
18444;DHT22;9350;53.176;8.194;2023-04-23T14:53:20;18.30;99.90
18444;DHT22;9350;53.176;8.194;2023-04-23T14:55:47;18.20;99.90
18444;DHT22;9350;53.176;8.194;2023-04-23T14:58:13;18.20;99.90
18444;DHT22;9350;53.176;8.194;2023-04-23T15:00:40;18.20;99.90
18444;DHT22;9350;53.176;8.194;2023-04-23T15:03:08;18.20;99.90
18444;DHT22;9350;53.176;8.194;2023-04-23T15:05:35;18.30;99.90
18444;DHT22;9350;53.176;8.194;2023-04-23T15:08:02;18.30;99.90
18444;DHT22;9350;53.176;8.194;2023-04-23T15:10:29;18.40;99.90
18444;DHT22;9350;53.176;8.194;2023-04-23T15:13:01;18.50;99.90
18444;DHT22;9350;53.176;8.194;2023-04-23T15:15:36;18.50;99.90
18444;DHT22;9350;53.176;8.194;2023-04-23T15:18:03;18.50;99.90
18444;DHT22;9350;53.176;8.194;2023-04-23T15:20:31;18.50;99.90
18444;DHT22;9350;53.176;8.194;2023-04-23T15:22:58;18.60;99.90
18444;DHT22;9350;53.176;8.194;2023-04-23T15:25:25;18.60;99.90
18444;DHT22;9350;53.176;8.194;2023-04-23T15:27:51;18.60;99.90
18444;DHT22;9350;53.176;8.194;2023-04-23T15:30:23;18.70;99.90
18444;DHT22;9350;53.176;8.194;2023-04-23T15:32:49;18.60;99.90
18444;DHT22;9350;53.176;8.194;2023-04-23T15:35:16;18.60;99.90
18444;DHT22;9350;53.176;8.194;2023-04-23T15:37:44;18.50;99.90
18444;DHT22;9350;53.176;8.194;2023-04-23T15:40:11;18.60;99.90
18444;DHT22;9350;53.176;8.194;2023-04-23T15:42:38;18.50;99.90
18444;DHT22;9350;53.176;8.194;2023-04-23T15:45:07;18.40;99.90
18444;DHT22;9350;53.176;8.194;2023-04-23T15:47:34;18.50;99.90
18444;DHT22;9350;53.176;8.194;2023-04-23T15:50:01;18.50;99.90